createdAt,value
2022-10-23T00:01:52.309Z,4.37
2022-10-23T00:03:57.078Z,4.03
2022-10-23T00:05:58.687Z,3.63
2022-10-23T00:08:00.983Z,3.90
2022-10-23T00:10:02.738Z,4.13
2022-10-23T00:12:04.456Z,4.00
2022-10-23T00:14:08.424Z,4.20
2022-10-23T00:16:10.499Z,4.63
2022-10-23T00:18:12.120Z,4.30
2022-10-23T00:20:14.557Z,4.50
2022-10-23T00:22:16.232Z,4.20
2022-10-23T00:24:18.130Z,4.17
2022-10-23T00:26:20.304Z,4.37
2022-10-23T00:28:22.021Z,4.30
2022-10-23T00:30:23.652Z,4.40
2022-10-23T00:32:25.788Z,4.30
2022-10-23T00:34:27.469Z,3.73
2022-10-23T00:36:29.214Z,4.20
2022-10-23T00:38:30.938Z,3.97
2022-10-23T00:40:32.631Z,3.77
2022-10-23T00:42:34.380Z,4.00
2022-10-23T00:44:35.995Z,4.10
2022-10-23T00:46:39.359Z,4.10
2022-10-23T00:48:41.005Z,4.00
2022-10-23T00:50:43.445Z,4.10
2022-10-23T00:52:53.638Z,3.77
2022-10-23T00:54:56.853Z,3.50
2022-10-23T00:57:02.259Z,3.87
2022-10-23T00:59:03.971Z,3.63
2022-10-23T01:01:17.106Z,3.23
2022-10-23T01:03:21.524Z,3.40
2022-10-23T01:05:30.428Z,3.07
2022-10-23T01:08:16.087Z,3.30
2022-10-23T01:10:29.232Z,3.67
2022-10-23T01:12:55.485Z,3.50
2022-10-23T01:15:02.735Z,3.47
2022-10-23T01:17:17.067Z,3.60
2022-10-23T01:19:38.160Z,3.40
2022-10-23T01:21:48.862Z,3.67
2022-10-23T01:24:01.313Z,3.50
2022-10-23T01:26:05.571Z,3.60
2022-10-23T01:28:11.845Z,4.40
2022-10-23T01:30:17.005Z,3.10
2022-10-23T01:32:40.631Z,3.20
2022-10-23T01:34:50.816Z,3.67
2022-10-23T01:36:54.022Z,3.60
2022-10-23T01:39:24.672Z,2.80
2022-10-23T01:41:46.624Z,3.40
2022-10-23T01:43:57.053Z,3.13
2022-10-23T01:46:03.792Z,3.00
2022-10-23T01:48:08.944Z,3.03
2022-10-23T01:50:13.332Z,3.00
2022-10-23T01:52:18.218Z,2.87
2022-10-23T01:54:24.250Z,2.93
2022-10-23T01:56:35.298Z,3.43
2022-10-23T01:58:39.405Z,3.50
2022-10-23T02:00:43.774Z,3.67
2022-10-23T02:02:49.677Z,4.00
2022-10-23T02:04:59.014Z,3.90
2022-10-23T02:07:00.855Z,3.63
2022-10-23T02:09:02.679Z,3.50
2022-10-23T02:11:09.348Z,3.13
2022-10-23T02:13:25.290Z,3.17
2022-10-23T02:15:33.094Z,3.60
2022-10-23T02:17:37.525Z,3.27
2022-10-23T02:19:43.644Z,3.17
2022-10-23T02:22:03.754Z,3.20
2022-10-23T02:24:18.009Z,3.30
2022-10-23T02:26:32.465Z,3.13
2022-10-23T02:28:46.246Z,3.30
2022-10-23T02:30:50.505Z,2.83
2022-10-23T02:32:54.953Z,3.00
2022-10-23T02:34:57.069Z,3.20
2022-10-23T02:36:58.762Z,3.17
2022-10-23T02:39:00.468Z,3.70
2022-10-23T02:41:08.004Z,3.70
2022-10-23T02:43:24.239Z,3.97
2022-10-23T02:45:56.872Z,3.93
2022-10-23T02:48:10.048Z,3.77
2022-10-23T02:50:44.010Z,4.17
2022-10-23T02:52:57.567Z,4.17
2022-10-23T02:55:22.510Z,3.70
2022-10-23T02:57:51.559Z,3.70
2022-10-23T03:00:05.585Z,4.00
2022-10-23T03:02:17.933Z,3.97
2022-10-23T03:04:23.814Z,3.47
2022-10-23T03:06:25.665Z,3.37
2022-10-23T03:08:27.292Z,4.13
2022-10-23T03:10:28.908Z,4.23
2022-10-23T03:12:30.610Z,4.33
2022-10-23T03:14:32.306Z,4.90
2022-10-23T03:16:34.044Z,3.67
2022-10-23T03:18:35.890Z,4.00
2022-10-23T03:20:37.503Z,4.23
2022-10-23T03:22:40.197Z,4.43
2022-10-23T03:24:42.109Z,4.20
2022-10-23T03:26:43.790Z,4.50
2022-10-23T03:28:45.447Z,4.10
2022-10-23T03:30:47.101Z,3.47
2022-10-23T03:32:48.828Z,5.17
2022-10-23T03:34:50.477Z,4.20
2022-10-23T03:36:52.141Z,4.07
2022-10-23T03:38:53.812Z,4.10
2022-10-23T03:40:55.427Z,4.30
2022-10-23T03:42:57.196Z,3.57
2022-10-23T03:44:58.879Z,4.00
2022-10-23T03:47:00.779Z,4.33
2022-10-23T03:49:02.470Z,3.93
2022-10-23T03:51:06.851Z,3.93
2022-10-23T03:53:08.474Z,3.87
2022-10-23T03:55:10.884Z,4.50
2022-10-23T03:57:12.715Z,4.00
2022-10-23T03:59:14.337Z,4.37
2022-10-23T04:01:16.565Z,4.10
2022-10-23T04:03:18.283Z,3.57
2022-10-23T04:05:19.960Z,3.93
2022-10-23T04:07:21.612Z,3.77
2022-10-23T04:09:23.239Z,4.00
2022-10-23T04:11:24.881Z,4.00
2022-10-23T04:13:26.518Z,3.87
2022-10-23T04:15:28.237Z,4.20
2022-10-23T04:17:29.898Z,3.93
2022-10-23T04:19:31.638Z,3.97
2022-10-23T04:21:33.290Z,3.80
2022-10-23T04:23:34.998Z,3.70
2022-10-23T04:25:36.654Z,3.80
2022-10-23T04:27:38.403Z,3.50
2022-10-23T04:29:40.092Z,5.77
2022-10-23T04:31:41.717Z,6.03
2022-10-23T04:33:43.455Z,5.30
2022-10-23T04:35:45.399Z,4.27
2022-10-23T04:37:47.978Z,4.73
2022-10-23T04:39:49.588Z,4.00
2022-10-23T04:41:51.396Z,3.77
2022-10-23T04:43:53.042Z,3.90
2022-10-23T04:45:54.820Z,3.77
2022-10-23T04:47:56.473Z,3.87
2022-10-23T04:49:58.096Z,3.50
2022-10-23T04:51:59.706Z,4.03
2022-10-23T04:54:01.445Z,3.70
2022-10-23T04:56:03.117Z,3.80
2022-10-23T04:58:04.741Z,4.23
2022-10-23T05:00:09.708Z,4.53
2022-10-23T05:02:11.893Z,3.80
2022-10-23T05:04:14.069Z,4.23
2022-10-23T05:06:15.707Z,4.63
2022-10-23T05:08:18.238Z,4.50
2022-10-23T05:10:20.082Z,4.23
2022-10-23T05:12:21.833Z,3.30
2022-10-23T05:14:23.513Z,4.10
2022-10-23T05:16:50.390Z,3.57
2022-10-23T05:18:52.090Z,3.70
2022-10-23T05:20:59.377Z,4.47
2022-10-23T05:23:02.740Z,3.90
2022-10-23T05:25:05.257Z,4.17
2022-10-23T05:27:06.964Z,4.20
2022-10-23T05:29:08.559Z,4.17
2022-10-23T05:31:10.814Z,3.77
2022-10-23T05:33:12.645Z,3.70
2022-10-23T05:35:22.095Z,3.47
2022-10-23T05:37:24.238Z,4.13
2022-10-23T05:39:25.990Z,3.73
2022-10-23T05:41:27.631Z,3.93
2022-10-23T05:43:31.284Z,4.63
2022-10-23T05:45:32.942Z,3.87
2022-10-23T05:47:34.597Z,4.70
2022-10-23T05:49:36.392Z,4.10
2022-10-23T05:51:40.047Z,4.10
2022-10-23T05:53:42.570Z,4.07
2022-10-23T05:55:44.306Z,4.40
2022-10-23T05:57:46.206Z,4.30
2022-10-23T05:59:47.896Z,3.90
2022-10-23T06:01:49.774Z,4.20
2022-10-23T06:03:51.617Z,4.00
2022-10-23T06:05:53.302Z,3.57
2022-10-23T06:08:00.809Z,3.80
2022-10-23T06:10:03.227Z,3.47
2022-10-23T06:12:05.223Z,3.10
2022-10-23T06:14:07.242Z,3.63
2022-10-23T06:16:19.868Z,3.37
2022-10-23T06:18:21.564Z,4.00
2022-10-23T06:20:26.601Z,3.70
2022-10-23T06:22:30.437Z,3.60
2022-10-23T06:24:32.117Z,3.80
2022-10-23T06:26:34.195Z,5.63
2022-10-23T06:28:35.997Z,8.97
2022-10-23T06:30:39.848Z,6.50
2022-10-23T06:32:41.746Z,4.23
2022-10-23T06:34:43.713Z,3.90
2022-10-23T06:36:45.463Z,4.03
2022-10-23T06:38:47.309Z,4.10
2022-10-23T06:40:56.438Z,3.63
2022-10-23T06:42:58.100Z,4.30
2022-10-23T06:45:03.251Z,4.20
2022-10-23T06:47:10.766Z,4.60
2022-10-23T06:49:12.821Z,5.27
2022-10-23T06:51:17.229Z,5.00
2022-10-23T06:53:18.853Z,4.50
2022-10-23T06:55:20.552Z,4.60
2022-10-23T06:57:22.186Z,4.80
2022-10-23T06:59:24.091Z,4.63
2022-10-23T07:01:26.100Z,4.40
2022-10-23T07:03:28.339Z,5.33
2022-10-23T07:05:29.948Z,4.97
2022-10-23T07:07:31.965Z,4.70
2022-10-23T07:09:36.266Z,4.80
2022-10-23T07:11:38.079Z,4.50
2022-10-23T07:13:40.697Z,5.03
2022-10-23T07:15:42.341Z,4.77
2022-10-23T07:17:44.002Z,4.63
2022-10-23T07:19:47.130Z,5.10
2022-10-23T07:21:48.756Z,5.10
2022-10-23T07:23:50.474Z,5.10
2022-10-23T07:25:52.280Z,5.30
2022-10-23T07:27:55.843Z,5.10
2022-10-23T07:29:57.606Z,4.67
2022-10-23T07:32:02.922Z,4.97
2022-10-23T07:34:05.054Z,4.87
2022-10-23T07:36:08.862Z,5.30
2022-10-23T07:38:10.433Z,5.30
2022-10-23T07:40:12.632Z,5.20
2022-10-23T07:42:14.271Z,4.90
2022-10-23T07:44:15.832Z,4.90
2022-10-23T07:46:17.378Z,4.73
2022-10-23T07:48:21.019Z,5.00
2022-10-23T07:50:22.635Z,5.13
2022-10-23T07:52:24.343Z,5.00
2022-10-23T07:54:25.911Z,4.63
2022-10-23T07:56:31.731Z,5.00
2022-10-23T07:58:33.277Z,4.93
2022-10-23T08:00:35.813Z,4.47
2022-10-23T08:02:37.726Z,4.50
2022-10-23T08:04:39.518Z,4.80
2022-10-23T08:06:41.345Z,4.30
2022-10-23T08:08:43.067Z,4.73
2022-10-23T08:10:46.712Z,4.63
2022-10-23T08:12:48.287Z,4.73
2022-10-23T08:14:49.931Z,4.80
2022-10-23T08:16:51.646Z,5.10
2022-10-23T08:18:53.794Z,4.97
2022-10-23T08:21:00.945Z,4.43
2022-10-23T08:23:02.472Z,5.10
2022-10-23T08:25:04.294Z,4.43
2022-10-23T08:27:05.963Z,4.93
2022-10-23T08:29:07.581Z,4.70
2022-10-23T08:31:17.564Z,4.73
2022-10-23T08:33:19.106Z,4.90
2022-10-23T08:35:20.644Z,4.40
2022-10-23T08:37:22.340Z,4.57
2022-10-23T08:39:23.951Z,4.27
2022-10-23T08:41:28.770Z,4.97
2022-10-23T08:43:37.605Z,4.00
2022-10-23T08:45:48.649Z,3.90
2022-10-23T08:47:55.887Z,3.60
2022-10-23T08:50:03.015Z,4.10
2022-10-23T08:52:26.546Z,3.90
2022-10-23T08:54:42.450Z,3.73
2022-10-23T08:56:49.485Z,4.23
2022-10-23T08:58:57.891Z,3.67
2022-10-23T09:00:59.691Z,3.83
2022-10-23T09:03:04.593Z,3.83
2022-10-23T09:05:14.138Z,3.50
2022-10-23T09:07:50.615Z,3.67
2022-10-23T09:10:18.181Z,3.20
2022-10-23T09:12:24.971Z,3.47
2022-10-23T09:14:32.169Z,3.40
2022-10-23T09:16:52.380Z,3.33
2022-10-23T09:18:55.794Z,3.90
2022-10-23T09:20:57.633Z,3.77
2022-10-23T09:23:03.369Z,3.90
2022-10-23T09:25:10.600Z,3.60
2022-10-23T09:27:17.521Z,4.20
2022-10-23T09:29:29.756Z,4.20
2022-10-23T09:31:31.325Z,3.80
2022-10-23T09:33:34.719Z,3.70
2022-10-23T09:35:36.307Z,21.13
2022-10-23T09:37:46.325Z,4.70
2022-10-23T09:39:48.433Z,7.57
2022-10-23T09:41:50.904Z,4.20
2022-10-23T09:44:20.127Z,3.60
2022-10-23T09:46:21.708Z,3.60
2022-10-23T09:48:23.307Z,3.30
2022-10-23T09:50:24.913Z,3.30
2022-10-23T09:52:35.476Z,3.43
2022-10-23T09:54:46.348Z,3.40
2022-10-23T09:58:59.085Z,14.67
2022-10-23T10:01:01.200Z,3.40
2022-10-23T10:03:05.966Z,3.43
2022-10-23T10:05:29.977Z,2.93
2022-10-23T10:07:33.535Z,3.47
2022-10-23T10:09:37.600Z,3.20
2022-10-23T10:11:44.874Z,2.70
2022-10-23T10:14:14.341Z,2.90
2022-10-23T10:16:32.539Z,3.17
2022-10-23T10:18:56.297Z,2.80
2022-10-23T10:21:33.072Z,2.80
2022-10-23T10:23:43.965Z,2.67
2022-10-23T10:25:53.986Z,2.60
2022-10-23T10:27:58.498Z,2.70
2022-10-23T10:30:02.729Z,2.70
2022-10-23T10:32:25.506Z,2.40
2022-10-23T10:34:43.582Z,2.37
2022-10-23T10:36:55.609Z,2.20
2022-10-23T10:39:00.894Z,2.03
2022-10-23T10:41:21.148Z,1.93
2022-10-23T10:43:31.807Z,1.90
2022-10-23T10:45:39.931Z,2.10
2022-10-23T10:47:59.445Z,2.07
2022-10-23T10:50:03.742Z,2.30
2022-10-23T10:52:23.940Z,1.93
2022-10-23T10:54:28.453Z,3.13
2022-10-23T10:56:33.495Z,2.27
2022-10-23T10:58:52.886Z,2.00
2022-10-23T11:03:30.343Z,2.40
2022-10-23T11:05:35.172Z,2.30
2022-10-23T11:07:48.597Z,2.40
2022-10-23T11:09:50.739Z,2.50
2022-10-23T11:11:52.397Z,2.23
2022-10-23T11:13:54.040Z,2.40
2022-10-23T11:16:00.787Z,2.10
2022-10-23T11:18:07.107Z,2.10
2022-10-23T11:20:17.022Z,2.10
2022-10-23T11:22:21.387Z,2.40
2022-10-23T11:24:34.488Z,2.20
2022-10-23T11:26:38.689Z,2.10
2022-10-23T11:29:03.444Z,1.83
2022-10-23T11:31:11.855Z,2.30
2022-10-23T11:33:45.892Z,2.17
2022-10-23T11:36:15.768Z,2.20
2022-10-23T11:38:19.264Z,2.10
2022-10-23T11:40:25.173Z,2.10
2022-10-23T11:42:38.634Z,2.00
2022-10-23T11:44:46.991Z,1.90
2022-10-23T11:47:00.989Z,2.10
2022-10-23T11:49:06.023Z,1.90
2022-10-23T11:51:29.188Z,1.77
2022-10-23T11:53:33.744Z,2.00
2022-10-23T11:55:35.401Z,1.90
2022-10-23T11:57:36.980Z,1.80
2022-10-23T11:59:47.463Z,2.00
2022-10-23T12:01:51.786Z,1.80
2022-10-23T12:03:59.305Z,1.73
2022-10-23T12:06:04.717Z,2.00
2022-10-23T12:08:19.326Z,2.10
2022-10-23T12:10:28.722Z,1.90
2022-10-23T12:12:58.254Z,2.00
2022-10-23T12:15:12.072Z,2.00
2022-10-23T12:17:22.625Z,1.87
2022-10-23T12:19:27.241Z,2.40
2022-10-23T12:21:35.186Z,1.93
2022-10-23T12:24:07.861Z,2.17
2022-10-23T12:26:30.898Z,2.07
2022-10-23T12:28:50.787Z,2.27
2022-10-23T12:31:04.744Z,2.00
2022-10-23T12:33:26.485Z,2.20
2022-10-23T12:35:47.651Z,2.20
2022-10-23T12:38:04.222Z,2.73
2022-10-23T12:40:09.182Z,2.10
2022-10-23T12:42:22.432Z,2.40
2022-10-23T12:44:27.550Z,2.37
2022-10-23T12:46:47.283Z,2.10
2022-10-23T12:48:50.403Z,2.20
2022-10-23T12:50:55.261Z,1.90
2022-10-23T12:53:01.281Z,2.10
2022-10-23T12:55:13.072Z,1.93
2022-10-23T12:57:26.095Z,2.43
2022-10-23T12:59:37.918Z,2.37
2022-10-23T13:01:41.699Z,2.00
2022-10-23T13:03:45.021Z,1.97
2022-10-23T13:05:47.014Z,2.20
2022-10-23T13:07:50.896Z,2.23
2022-10-23T13:09:53.339Z,2.20
2022-10-23T13:11:56.186Z,2.20
2022-10-23T13:13:58.626Z,2.33
2022-10-23T13:16:00.208Z,2.00
2022-10-23T13:18:04.450Z,1.83
2022-10-23T13:20:18.049Z,2.10
2022-10-23T13:22:21.681Z,2.10
2022-10-23T13:24:26.262Z,2.00
2022-10-23T13:26:32.802Z,2.28
2022-10-23T13:28:42.568Z,2.10
2022-10-23T13:30:48.143Z,2.10
2022-10-23T13:32:49.824Z,2.10
2022-10-23T13:35:03.686Z,2.00
2022-10-23T13:37:25.309Z,1.90
2022-10-23T13:39:32.623Z,1.67
2022-10-23T13:41:45.598Z,2.00
2022-10-23T13:43:48.569Z,2.03
2022-10-23T13:45:50.151Z,1.70
2022-10-23T13:47:51.840Z,2.20
2022-10-23T13:49:53.495Z,1.80
2022-10-23T13:51:56.436Z,1.95
2022-10-23T13:53:58.248Z,1.70
2022-10-23T13:55:59.917Z,1.88
2022-10-23T13:58:02.516Z,1.90
2022-10-23T14:00:04.533Z,2.15
2022-10-23T14:02:23.128Z,1.80
2022-10-23T14:04:24.805Z,2.57
2022-10-23T14:06:26.455Z,1.83
2022-10-23T14:08:28.126Z,2.00
2022-10-23T14:10:29.859Z,2.03
2022-10-23T14:12:31.644Z,2.05
2022-10-23T14:14:33.828Z,1.90
2022-10-23T14:16:35.895Z,1.85
2022-10-23T14:18:37.544Z,2.05
2022-10-23T14:20:39.453Z,1.92
2022-10-23T14:22:41.272Z,1.73
2022-10-23T14:24:43.033Z,2.17
2022-10-23T14:26:44.647Z,1.70
2022-10-23T14:28:46.658Z,1.80
2022-10-23T14:30:48.271Z,2.38
2022-10-23T14:32:50.184Z,1.90
2022-10-23T14:34:54.063Z,2.03
2022-10-23T14:37:09.152Z,2.00
2022-10-23T14:39:11.014Z,1.92
2022-10-23T14:41:14.348Z,1.98
2022-10-23T14:43:16.019Z,2.20
2022-10-23T14:45:17.806Z,2.20
2022-10-23T14:47:20.460Z,2.78
2022-10-23T14:49:22.023Z,2.55
2022-10-23T14:51:30.119Z,2.53
2022-10-23T14:53:31.755Z,2.87
2022-10-23T14:55:33.511Z,3.03
2022-10-23T14:57:35.143Z,2.33
2022-10-23T14:59:36.769Z,2.20
2022-10-23T15:01:43.871Z,2.50
2022-10-23T15:03:48.622Z,2.15
2022-10-23T15:05:50.198Z,2.20
2022-10-23T15:07:51.777Z,2.58
2022-10-23T15:09:53.614Z,2.15
2022-10-23T15:11:55.256Z,2.37
2022-10-23T15:13:59.584Z,2.40
2022-10-23T15:16:05.862Z,2.83
2022-10-23T15:18:07.477Z,2.17
2022-10-23T15:20:09.573Z,1.90
2022-10-23T15:22:11.236Z,2.10
2022-10-23T15:24:13.185Z,1.80
2022-10-23T15:26:21.058Z,1.80
2022-10-23T15:28:22.705Z,2.00
2022-10-23T15:30:25.384Z,2.20
2022-10-23T15:32:26.909Z,2.30
2022-10-23T15:34:29.655Z,2.70
2022-10-23T15:36:31.724Z,4.10
2022-10-23T15:38:33.273Z,5.05
2022-10-23T15:40:35.030Z,4.80
2022-10-23T15:42:36.695Z,5.78
2022-10-23T15:44:39.705Z,5.18
2022-10-23T15:46:41.480Z,4.43
2022-10-23T15:48:43.094Z,4.43
2022-10-23T15:50:44.650Z,4.17
2022-10-23T15:52:46.517Z,5.07
2022-10-23T15:54:48.240Z,4.83
2022-10-23T15:56:52.634Z,5.47
2022-10-23T15:58:57.377Z,5.35
2022-10-23T16:01:03.033Z,4.60
2022-10-23T16:03:04.714Z,6.35
2022-10-23T16:05:06.422Z,8.53
2022-10-23T16:07:09.008Z,7.00
2022-10-23T16:09:10.861Z,5.67
2022-10-23T16:11:16.927Z,4.87
2022-10-23T16:13:18.504Z,4.33
2022-10-23T16:15:20.150Z,3.93
2022-10-23T16:17:21.842Z,3.43
2022-10-23T16:19:23.527Z,2.90
2022-10-23T16:21:27.729Z,3.13
2022-10-23T16:23:29.732Z,5.00
2022-10-23T16:27:37.811Z,8.85
2022-10-23T16:29:39.503Z,15.30
2022-10-23T16:31:41.223Z,9.60
2022-10-23T16:33:43.140Z,15.67
2022-10-23T16:35:44.828Z,13.48
2022-10-23T16:37:47.007Z,15.17
2022-10-23T16:39:48.690Z,12.90
2022-10-23T16:41:52.642Z,13.80
2022-10-23T16:43:54.273Z,14.83
2022-10-23T16:46:05.777Z,20.20
2022-10-23T16:48:07.345Z,21.43
2022-10-23T16:50:09.034Z,16.70
2022-10-23T16:52:10.641Z,13.90
2022-10-23T16:54:12.203Z,14.97
2022-10-23T16:56:15.945Z,14.93
2022-10-23T16:58:17.493Z,15.30
2022-10-23T17:00:22.028Z,16.80
2022-10-23T17:02:23.704Z,14.75
2022-10-23T17:04:25.373Z,17.93
2022-10-23T17:06:30.651Z,18.03
2022-10-23T17:08:32.709Z,39.37
2022-10-23T17:10:34.299Z,17.20
2022-10-23T17:12:36.159Z,12.03
2022-10-23T17:14:38.768Z,6.20
2022-10-23T17:16:42.282Z,4.60
2022-10-23T17:18:45.543Z,3.37
2022-10-23T17:20:56.441Z,3.73
2022-10-23T17:22:58.003Z,4.13
2022-10-23T17:24:59.603Z,4.67
2022-10-23T17:27:01.380Z,4.57
2022-10-23T17:29:05.356Z,4.00
2022-10-23T17:31:24.620Z,3.60
2022-10-23T17:33:26.263Z,3.60
2022-10-23T17:35:27.868Z,4.47
2022-10-23T17:37:29.503Z,3.77
2022-10-23T17:39:31.226Z,4.07
2022-10-23T17:41:33.406Z,3.73
2022-10-23T17:43:35.780Z,4.03
2022-10-23T17:45:37.392Z,4.17
2022-10-23T17:47:41.095Z,4.13
2022-10-23T17:49:45.400Z,6.63
2022-10-23T17:51:54.070Z,5.10
2022-10-23T17:53:59.742Z,5.30
2022-10-23T17:56:02.668Z,4.30
2022-10-23T17:58:04.244Z,5.17
2022-10-23T18:00:06.484Z,5.70
2022-10-23T18:02:09.459Z,5.50
2022-10-23T18:04:12.921Z,5.00
2022-10-23T18:06:18.398Z,4.50
2022-10-23T18:08:19.989Z,4.20
2022-10-23T18:10:21.580Z,4.50
2022-10-23T18:12:23.202Z,5.80
2022-10-23T18:14:27.254Z,8.90
2022-10-23T18:16:34.525Z,7.17
2022-10-23T18:18:36.154Z,6.00
2022-10-23T18:20:41.900Z,5.03
2022-10-23T18:22:43.901Z,4.23
2022-10-23T18:24:45.653Z,4.53
2022-10-23T18:26:48.305Z,5.00
2022-10-23T18:28:56.991Z,4.20
2022-10-23T18:30:58.684Z,4.57
2022-10-23T18:33:00.334Z,29.43
2022-10-23T18:35:02.037Z,7.53
2022-10-23T18:37:03.843Z,4.77
2022-10-23T18:39:07.994Z,3.90
2022-10-23T18:41:09.596Z,4.17
2022-10-23T18:43:15.030Z,4.07
2022-10-23T18:45:21.662Z,4.30
2022-10-23T18:47:23.289Z,5.73
2022-10-23T18:49:25.012Z,5.90
2022-10-23T18:51:30.294Z,6.13
2022-10-23T18:53:31.900Z,6.87
2022-10-23T18:57:40.243Z,4.93
2022-10-23T18:59:42.247Z,3.20
2022-10-23T19:01:44.436Z,3.23
2022-10-23T19:03:46.508Z,3.53
2022-10-23T19:05:51.020Z,4.00
2022-10-23T19:07:52.665Z,3.53
2022-10-23T19:09:55.775Z,3.50
2022-10-23T19:11:58.185Z,4.23
2022-10-23T19:13:59.809Z,3.60
2022-10-23T19:16:01.536Z,3.70
2022-10-23T19:18:05.341Z,4.40
2022-10-23T19:20:11.098Z,4.00
2022-10-23T19:22:16.655Z,4.57
2022-10-23T19:24:23.675Z,4.10
2022-10-23T19:26:26.347Z,3.27
2022-10-23T19:28:28.231Z,3.77
2022-10-23T19:30:30.595Z,3.67
2022-10-23T19:32:32.410Z,4.30
2022-10-23T19:34:34.024Z,3.37
2022-10-23T19:36:35.618Z,4.50
2022-10-23T19:38:40.192Z,3.53
2022-10-23T19:40:41.806Z,4.40
2022-10-23T19:42:44.329Z,3.40
2022-10-23T19:44:45.875Z,3.50
2022-10-23T19:46:48.506Z,4.37
2022-10-23T19:48:50.192Z,3.67
2022-10-23T19:50:51.738Z,3.93
2022-10-23T19:52:53.292Z,3.70
2022-10-23T19:54:54.882Z,3.90
2022-10-23T19:56:57.214Z,3.50
2022-10-23T19:58:58.827Z,4.47
2022-10-23T20:01:11.810Z,4.90
2022-10-23T20:03:13.572Z,4.00
2022-10-23T20:05:15.635Z,4.03
2022-10-23T20:07:17.309Z,4.30
2022-10-23T20:09:18.863Z,4.20
2022-10-23T20:11:24.861Z,3.80
2022-10-23T20:13:26.708Z,3.40
2022-10-23T20:15:28.494Z,3.23
2022-10-23T20:17:30.106Z,3.90
2022-10-23T20:19:32.066Z,3.73
2022-10-23T20:21:37.995Z,3.50
2022-10-23T20:23:39.625Z,3.87
2022-10-23T20:25:41.243Z,3.53
2022-10-23T20:27:42.875Z,3.60
2022-10-23T20:29:45.752Z,3.60
2022-10-23T20:31:47.827Z,4.00
2022-10-23T20:33:50.408Z,3.17
2022-10-23T20:38:01.707Z,3.27
2022-10-23T20:40:03.882Z,3.67
2022-10-23T20:42:05.763Z,3.20
2022-10-23T20:44:11.106Z,3.53
2022-10-23T20:46:12.840Z,4.07
2022-10-23T20:48:14.369Z,4.03
2022-10-23T20:50:16.091Z,4.00
2022-10-23T20:52:17.759Z,3.50
2022-10-23T20:54:19.400Z,4.13
2022-10-23T20:56:30.299Z,4.20
2022-10-23T20:58:32.206Z,4.50
2022-10-23T21:00:33.776Z,3.90
2022-10-23T21:02:35.500Z,3.93
2022-10-23T21:04:37.175Z,4.13
2022-10-23T21:06:51.815Z,3.80
2022-10-23T21:09:01.898Z,3.40
2022-10-23T21:11:04.035Z,3.80
2022-10-23T21:13:05.600Z,3.67
2022-10-23T21:15:08.066Z,3.50
2022-10-23T21:17:12.154Z,4.13
2022-10-23T21:19:15.901Z,3.77
2022-10-23T21:21:19.842Z,3.83
2022-10-23T21:23:22.021Z,3.87
2022-10-23T21:25:24.406Z,4.00
2022-10-23T21:27:26.339Z,3.93
2022-10-23T21:29:27.978Z,4.00
2022-10-23T21:31:29.578Z,3.93
2022-10-23T21:33:31.151Z,4.10
2022-10-23T21:35:33.493Z,3.50
2022-10-23T21:37:35.065Z,4.37
2022-10-23T21:39:36.652Z,4.00
2022-10-23T21:41:38.323Z,4.10
2022-10-23T21:43:40.180Z,4.10
2022-10-23T21:45:41.719Z,3.63
2022-10-23T21:47:43.670Z,4.30
2022-10-23T21:49:45.451Z,4.10
2022-10-23T21:51:47.445Z,4.13
2022-10-23T21:53:49.603Z,4.33
2022-10-23T21:55:51.368Z,3.60
2022-10-23T21:57:52.913Z,3.70
2022-10-23T21:59:54.505Z,3.87
2022-10-23T22:01:56.167Z,4.30
2022-10-23T22:03:57.921Z,3.40
2022-10-23T22:05:59.536Z,3.70
2022-10-23T22:08:01.231Z,3.60
2022-10-23T22:10:02.885Z,4.23
2022-10-23T22:12:04.559Z,3.67
2022-10-23T22:14:06.143Z,3.87
2022-10-23T22:16:08.311Z,4.00
2022-10-23T22:18:10.443Z,5.03
2022-10-23T22:20:12.068Z,3.60
2022-10-23T22:22:13.695Z,3.60
2022-10-23T22:24:17.505Z,4.13
2022-10-23T22:26:30.033Z,3.77
2022-10-23T22:28:31.659Z,3.63
2022-10-23T22:30:36.587Z,3.90
2022-10-23T22:32:38.134Z,4.00
2022-10-23T22:34:55.123Z,3.83
2022-10-23T22:36:56.915Z,4.20
2022-10-23T22:38:58.512Z,4.80
2022-10-23T22:41:02.045Z,3.50
2022-10-23T22:43:04.292Z,3.63
2022-10-23T22:45:06.400Z,3.80
2022-10-23T22:47:08.013Z,4.53
2022-10-23T22:49:09.615Z,3.80
2022-10-23T22:51:13.781Z,3.23
2022-10-23T22:53:16.777Z,3.73
2022-10-23T22:55:18.366Z,3.83
2022-10-23T22:57:19.945Z,4.00
2022-10-23T22:59:21.537Z,3.70
2022-10-23T23:01:35.462Z,4.17
2022-10-23T23:03:37.937Z,4.13
2022-10-23T23:05:47.775Z,3.27
2022-10-23T23:07:49.413Z,3.33
2022-10-23T23:09:50.960Z,3.70
2022-10-23T23:11:52.875Z,3.60
2022-10-23T23:13:54.645Z,3.60
2022-10-23T23:15:56.799Z,3.50
2022-10-23T23:17:58.954Z,4.10
2022-10-23T23:20:00.515Z,4.47
2022-10-23T23:22:02.420Z,4.90
2022-10-23T23:24:04.189Z,3.40
2022-10-23T23:26:06.861Z,3.53
2022-10-23T23:28:08.555Z,3.30
2022-10-23T23:30:10.559Z,3.80
2022-10-23T23:32:12.168Z,3.83
2022-10-23T23:34:13.726Z,4.43
2022-10-23T23:36:18.991Z,4.47
2022-10-23T23:38:20.530Z,3.63
2022-10-23T23:40:22.579Z,4.37
2022-10-23T23:42:24.201Z,3.70
2022-10-23T23:44:25.867Z,3.33
2022-10-23T23:46:27.490Z,3.40
2022-10-23T23:48:29.089Z,3.80
2022-10-23T23:50:30.691Z,3.43
2022-10-23T23:52:32.343Z,2.83
2022-10-23T23:54:33.951Z,3.80
2022-10-23T23:56:35.573Z,3.43
2022-10-23T23:58:37.302Z,3.13
